Dirección General De Aeronáutica Civil

Dirección Meteorológica de Chile - Servicios Climáticos

Informe General de Control de Calidad de la Estación

Listado de niveles de control de calidad para algunos parámetros
Estación Ovalle Escuela Agrícola (300024)
Fecha de Revisión de los datos :

Elementos

Registros Niveles de Control Total
Nivel 0 Nivel 1 Nivel 2 Nivel 3 Errores Porcentaje
01 Temperatura del Aire Seco 61.012 0 . 0 . 0 . 0 . 0 0.00 %
02 Temperatura de Rocío 49.023 0 . 0 . 0 . 0 . 0 0.00 %
03 Humedad Relativa del Aire 49.004 0 . 0 . 0 . 0 . 0 0.00 %
04 Temperatura Máxima PM 6.986 0 . 0 . 6 0.09 % 0 . 6 0.09 %
05 Temperatura Mínima AM 6.947 0 . 0 . 351 5.05 % 0 . 351 5.05 %
06 Viento a 10 m. de Altura 60.407 0 . 0 . 0 . 0 . 0 0.00 %
07 Agua Caida, Acumulada 6 Horas 8.205 0 . 0 . 0 . 0 . 0 0.00 %
08 Presión Atm. a Nivel de Estación (QFE) 43.565 0 . 0 . 0 . 0 . 0 0.00 %
09 Presión Atm. a Nivel Medio del Mar (QFF) 43.565 0 . 0 . 0 . 0 . 0 0.00 %
10 Presión Atm. Estándar OACI (QNH) 43.565 0 . 0 . 0 . 0 . 0 0.00 %

Totales

372.279 . 0.0000 % . 0.0000 % . 0.0959 % . 0.0000 % 357 0.0959 %

Detalle de Errores Encontrados

Nivel Fecha del Dato Descripción Información Error Fecha Ingreso
2 1999-11-16 00:00:00 Temperatura 24.9 del 15-11-1999 18:00, Mayor que la Máxima 24.8 16-11-1999 00:00 24.9 -- 24.8 2023-12-28 21:27:00
2 2000-06-06 00:00:00 Temperatura 19.9 del 05-06-2000 18:00, Mayor que la Máxima 19.8 06-06-2000 00:00 19.9 -- 19.8 2023-12-28 21:29:00
2 2004-03-19 00:00:00 Temperatura 26.5 del 18-03-2004 18:00, Mayor que la Máxima 23.8 19-03-2004 00:00 26.5 -- 23.8 2023-12-28 21:35:00
2 2004-06-21 00:00:00 Temperatura 17.2 del 20-06-2004 18:00, Mayor que la Máxima 9.9 21-06-2004 00:00 17.2 -- 9.9 2023-12-28 21:36:00
2 2007-10-24 00:00:00 Temperatura 28.2 del 23-10-2007 18:00, Mayor que la Máxima 22.6 24-10-2007 00:00 28.2 -- 22.6 2014-10-24 18:23:00
2 2019-06-27 00:00:00 Temperatura 18.9 del 26-06-2019 20:00, Mayor que la Máxima 17.1 27-06-2019 00:00 18.9 -- 17.1 2019-06-27 00:20:00
2 2005-02-27 12:00:00 Temperatura 15.1 del 27-02-2005 12:00, Menor que la Mínima 15.7 27-02-2005 12:00 15.1 -- 15.7 2023-12-28 21:37:00
2 2017-11-05 12:00:00 Temperatura 8.1 del 05-11-2017 10:00, Menor que la Mínima 11.8 05-11-2017 12:00 8.1 -- 11.8 2017-11-05 12:22:00
2 2017-11-06 12:00:00 Temperatura 11.4 del 06-11-2017 11:00, Menor que la Mínima 16.2 06-11-2017 12:00 11.4 -- 16.2 2017-11-06 12:22:00
2 2017-11-07 12:00:00 Temperatura 12.1 del 07-11-2017 10:00, Menor que la Mínima 12.6 07-11-2017 12:00 12.1 -- 12.6 2017-11-07 12:22:00
2 2017-11-08 12:00:00 Temperatura 11.5 del 08-11-2017 07:00, Menor que la Mínima 13.3 08-11-2017 12:00 11.5 -- 13.3 2017-11-08 12:22:00
2 2017-11-09 12:00:00 Temperatura 10.3 del 09-11-2017 09:00, Menor que la Mínima 14.4 09-11-2017 12:00 10.3 -- 14.4 2017-11-09 12:22:00
2 2017-11-10 12:00:00 Temperatura 12.6 del 10-11-2017 09:00, Menor que la Mínima 16.7 10-11-2017 12:00 12.6 -- 16.7 2017-11-10 12:22:00
2 2017-11-11 12:00:00 Temperatura 12.2 del 11-11-2017 06:00, Menor que la Mínima 19.8 11-11-2017 12:00 12.2 -- 19.8 2017-11-11 12:22:00
2 2017-11-12 12:00:00 Temperatura 10.3 del 12-11-2017 10:00, Menor que la Mínima 12.8 12-11-2017 12:00 10.3 -- 12.8 2017-11-12 12:22:00
2 2017-11-13 12:00:00 Temperatura 12.5 del 13-11-2017 04:00, Menor que la Mínima 14.6 13-11-2017 12:00 12.5 -- 14.6 2017-11-13 12:22:00
2 2017-11-14 12:00:00 Temperatura 11.6 del 14-11-2017 06:00, Menor que la Mínima 13.3 14-11-2017 12:00 11.6 -- 13.3 2017-11-14 12:22:00
2 2017-11-15 12:00:00 Temperatura 11.5 del 15-11-2017 06:00, Menor que la Mínima 12.5 15-11-2017 12:00 11.5 -- 12.5 2017-11-15 12:22:00
2 2017-11-16 12:00:00 Temperatura 8.2 del 16-11-2017 10:00, Menor que la Mínima 12.0 16-11-2017 12:00 8.2 -- 12.0 2017-11-16 12:22:00
2 2017-11-17 12:00:00 Temperatura 7.7 del 17-11-2017 10:00, Menor que la Mínima 13.9 17-11-2017 12:00 7.7 -- 13.9 2017-11-17 12:22:00
2 2017-11-18 12:00:00 Temperatura 8.3 del 18-11-2017 10:00, Menor que la Mínima 12.5 18-11-2017 12:00 8.3 -- 12.5 2017-11-18 12:22:00
2 2017-11-19 12:00:00 Temperatura 6.8 del 19-11-2017 10:00, Menor que la Mínima 12.1 19-11-2017 12:00 6.8 -- 12.1 2017-11-19 12:22:00
2 2017-11-20 12:00:00 Temperatura 10.1 del 20-11-2017 09:00, Menor que la Mínima 14.9 20-11-2017 12:00 10.1 -- 14.9 2017-11-20 12:22:00
2 2017-11-21 12:00:00 Temperatura 7.7 del 21-11-2017 10:00, Menor que la Mínima 11.3 21-11-2017 12:00 7.7 -- 11.3 2017-11-21 12:22:00
2 2017-11-22 12:00:00 Temperatura 9.0 del 22-11-2017 10:00, Menor que la Mínima 15.7 22-11-2017 12:00 9.0 -- 15.7 2017-11-22 12:22:00
2 2017-11-23 12:00:00 Temperatura 10.8 del 23-11-2017 09:00, Menor que la Mínima 14.9 23-11-2017 12:00 10.8 -- 14.9 2017-11-23 12:22:00
2 2017-11-25 12:00:00 Temperatura 7.6 del 25-11-2017 10:00, Menor que la Mínima 12.6 25-11-2017 12:00 7.6 -- 12.6 2017-11-25 12:22:00
2 2017-11-26 12:00:00 Temperatura 11.5 del 26-11-2017 06:00, Menor que la Mínima 14.3 26-11-2017 12:00 11.5 -- 14.3 2017-11-26 12:22:00
2 2017-11-27 12:00:00 Temperatura 10.2 del 27-11-2017 05:00, Menor que la Mínima 11.9 27-11-2017 12:00 10.2 -- 11.9 2017-11-27 12:22:00
2 2017-11-29 12:00:00 Temperatura 10.5 del 29-11-2017 04:00, Menor que la Mínima 13.3 29-11-2017 12:00 10.5 -- 13.3 2017-11-29 12:22:00
2 2017-11-30 12:00:00 Temperatura 9.6 del 30-11-2017 09:00, Menor que la Mínima 13.7 30-11-2017 12:00 9.6 -- 13.7 2017-11-30 12:22:00
2 2017-12-02 12:00:00 Temperatura 13.5 del 02-12-2017 03:00, Menor que la Mínima 14.4 02-12-2017 12:00 13.5 -- 14.4 2017-12-02 12:22:00
2 2017-12-03 12:00:00 Temperatura 9.2 del 03-12-2017 10:00, Menor que la Mínima 14.0 03-12-2017 12:00 9.2 -- 14.0 2017-12-03 12:22:00
2 2017-12-04 12:00:00 Temperatura 8.8 del 04-12-2017 09:00, Menor que la Mínima 15.6 04-12-2017 12:00 8.8 -- 15.6 2017-12-04 12:22:00
2 2017-12-05 12:00:00 Temperatura 10.8 del 05-12-2017 05:00, Menor que la Mínima 13.3 05-12-2017 12:00 10.8 -- 13.3 2017-12-05 12:22:00
2 2017-12-06 12:00:00 Temperatura 8.9 del 06-12-2017 09:00, Menor que la Mínima 12.7 06-12-2017 12:00 8.9 -- 12.7 2017-12-06 12:22:00
2 2017-12-07 12:00:00 Temperatura 9.7 del 07-12-2017 09:00, Menor que la Mínima 14.8 07-12-2017 12:00 9.7 -- 14.8 2017-12-07 12:22:00
2 2017-12-08 12:00:00 Temperatura 12.2 del 08-12-2017 05:00, Menor que la Mínima 14.3 08-12-2017 12:00 12.2 -- 14.3 2017-12-08 12:22:00
2 2017-12-09 12:00:00 Temperatura 10.7 del 09-12-2017 07:00, Menor que la Mínima 13.7 09-12-2017 12:00 10.7 -- 13.7 2017-12-09 12:22:00
2 2017-12-10 12:00:00 Temperatura 11.1 del 10-12-2017 08:00, Menor que la Mínima 12.5 10-12-2017 12:00 11.1 -- 12.5 2017-12-10 12:22:00
2 2017-12-12 12:00:00 Temperatura 12.2 del 12-12-2017 07:00, Menor que la Mínima 14.8 12-12-2017 12:00 12.2 -- 14.8 2017-12-12 12:22:00
2 2017-12-13 12:00:00 Temperatura 9.6 del 13-12-2017 10:00, Menor que la Mínima 13.9 13-12-2017 12:00 9.6 -- 13.9 2017-12-13 12:22:00
2 2017-12-14 12:00:00 Temperatura 9.9 del 14-12-2017 09:00, Menor que la Mínima 15.2 14-12-2017 12:00 9.9 -- 15.2 2017-12-14 12:22:00
2 2017-12-15 12:00:00 Temperatura 11.2 del 15-12-2017 09:00, Menor que la Mínima 16.8 15-12-2017 12:00 11.2 -- 16.8 2017-12-15 12:22:00
2 2017-12-16 12:00:00 Temperatura 11.7 del 16-12-2017 08:00, Menor que la Mínima 13.9 16-12-2017 12:00 11.7 -- 13.9 2017-12-16 12:22:00
2 2017-12-17 12:00:00 Temperatura 10.1 del 17-12-2017 10:00, Menor que la Mínima 14.7 17-12-2017 12:00 10.1 -- 14.7 2017-12-17 12:22:00
2 2017-12-18 12:00:00 Temperatura 12.5 del 18-12-2017 08:00, Menor que la Mínima 15.5 18-12-2017 12:00 12.5 -- 15.5 2017-12-18 12:22:00
2 2017-12-19 12:00:00 Temperatura 13.2 del 19-12-2017 08:00, Menor que la Mínima 15.8 19-12-2017 12:00 13.2 -- 15.8 2017-12-19 12:22:00
2 2017-12-20 12:00:00 Temperatura 12.6 del 20-12-2017 07:00, Menor que la Mínima 17.2 20-12-2017 12:00 12.6 -- 17.2 2017-12-20 12:22:00
2 2017-12-21 12:00:00 Temperatura 11.6 del 21-12-2017 06:00, Menor que la Mínima 14.1 21-12-2017 12:00 11.6 -- 14.1 2017-12-21 12:22:00
2 2017-12-22 12:00:00 Temperatura 13.1 del 22-12-2017 10:00, Menor que la Mínima 14.3 22-12-2017 12:00 13.1 -- 14.3 2017-12-22 12:22:00
2 2017-12-23 12:00:00 Temperatura 10.3 del 23-12-2017 09:00, Menor que la Mínima 13.7 23-12-2017 12:00 10.3 -- 13.7 2017-12-23 12:22:00
2 2017-12-24 12:00:00 Temperatura 9.5 del 24-12-2017 10:00, Menor que la Mínima 14.8 24-12-2017 12:00 9.5 -- 14.8 2017-12-24 12:22:00
2 2017-12-25 12:00:00 Temperatura 9.7 del 25-12-2017 10:00, Menor que la Mínima 15.1 25-12-2017 12:00 9.7 -- 15.1 2017-12-25 12:22:00
2 2017-12-27 12:00:00 Temperatura 12.7 del 27-12-2017 07:00, Menor que la Mínima 15.2 27-12-2017 12:00 12.7 -- 15.2 2017-12-27 12:22:00
2 2017-12-28 12:00:00 Temperatura 12.7 del 28-12-2017 10:00, Menor que la Mínima 14.1 28-12-2017 12:00 12.7 -- 14.1 2017-12-28 12:22:00
2 2017-12-29 12:00:00 Temperatura 11.9 del 29-12-2017 10:00, Menor que la Mínima 14.6 29-12-2017 12:00 11.9 -- 14.6 2017-12-29 12:22:00
2 2017-12-30 12:00:00 Temperatura 13.1 del 30-12-2017 09:00, Menor que la Mínima 16.2 30-12-2017 12:00 13.1 -- 16.2 2017-12-30 12:22:00
2 2017-12-31 12:00:00 Temperatura 12.5 del 31-12-2017 09:00, Menor que la Mínima 14.7 31-12-2017 12:00 12.5 -- 14.7 2017-12-31 12:22:00
2 2018-05-01 12:00:00 Temperatura 8.4 del 01-05-2018 08:00, Menor que la Mínima 9.7 01-05-2018 12:00 8.4 -- 9.7 2018-05-01 12:37:00
2 2018-05-02 12:00:00 Temperatura 7.1 del 02-05-2018 09:00, Menor que la Mínima 10.0 02-05-2018 12:00 7.1 -- 10.0 2018-05-02 12:37:00
2 2018-05-04 12:00:00 Temperatura 7.4 del 04-05-2018 09:00, Menor que la Mínima 8.9 04-05-2018 12:00 7.4 -- 8.9 2018-05-04 12:37:00
2 2018-05-05 12:00:00 Temperatura 9.0 del 05-05-2018 12:00, Menor que la Mínima 10.1 05-05-2018 12:00 9.0 -- 10.1 2018-05-05 12:37:00
2 2018-05-07 12:00:00 Temperatura 8.9 del 07-05-2018 11:00, Menor que la Mínima 9.9 07-05-2018 12:00 8.9 -- 9.9 2018-05-07 13:37:00
2 2018-05-08 12:00:00 Temperatura 8.3 del 08-05-2018 10:00, Menor que la Mínima 9.1 08-05-2018 12:00 8.3 -- 9.1 2018-05-08 12:37:00
2 2018-05-10 12:00:00 Temperatura 8.3 del 10-05-2018 06:00, Menor que la Mínima 9.0 10-05-2018 12:00 8.3 -- 9.0 2018-05-10 12:37:00
2 2018-05-12 12:00:00 Temperatura 7.8 del 12-05-2018 09:00, Menor que la Mínima 11.7 12-05-2018 12:00 7.8 -- 11.7 2018-05-12 12:22:00
2 2018-05-14 12:00:00 Temperatura 7.0 del 14-05-2018 12:00, Menor que la Mínima 11.8 14-05-2018 12:00 7.0 -- 11.8 2018-05-14 12:37:00
2 2018-05-16 12:00:00 Temperatura 7.3 del 16-05-2018 10:00, Menor que la Mínima 10.4 16-05-2018 12:00 7.3 -- 10.4 2018-05-16 12:37:00
2 2018-05-17 12:00:00 Temperatura 8.2 del 17-05-2018 12:00, Menor que la Mínima 9.3 17-05-2018 12:00 8.2 -- 9.3 2018-05-17 12:37:00
2 2018-05-18 12:00:00 Temperatura 7.6 del 18-05-2018 06:00, Menor que la Mínima 8.0 18-05-2018 12:00 7.6 -- 8.0 2018-05-18 12:37:00
2 2018-05-19 12:00:00 Temperatura 9.1 del 19-05-2018 12:00, Menor que la Mínima 9.8 19-05-2018 12:00 9.1 -- 9.8 2018-05-22 15:15:00
2 2018-05-20 12:00:00 Temperatura 5.3 del 20-05-2018 11:00, Menor que la Mínima 9.1 20-05-2018 12:00 5.3 -- 9.1 2018-05-22 15:15:00
2 2018-05-22 12:00:00 Temperatura 6.0 del 22-05-2018 09:00, Menor que la Mínima 9.1 22-05-2018 12:00 6.0 -- 9.1 2018-05-22 12:37:00
2 2018-05-23 12:00:00 Temperatura 4.3 del 23-05-2018 07:00, Menor que la Mínima 5.5 23-05-2018 12:00 4.3 -- 5.5 2018-05-23 12:37:00
2 2018-05-25 12:00:00 Temperatura 3.3 del 25-05-2018 09:00, Menor que la Mínima 8.7 25-05-2018 12:00 3.3 -- 8.7 2018-05-25 12:37:00
2 2018-05-27 12:00:00 Temperatura 4.8 del 27-05-2018 09:00, Menor que la Mínima 8.0 27-05-2018 12:00 4.8 -- 8.0 2018-05-27 12:37:00
2 2018-05-31 12:00:00 Temperatura 9.3 del 31-05-2018 12:00, Menor que la Mínima 12.1 31-05-2018 12:00 9.3 -- 12.1 2018-05-31 12:37:00
2 2018-06-01 12:00:00 Temperatura 2.6 del 01-06-2018 11:00, Menor que la Mínima 8.8 01-06-2018 12:00 2.6 -- 8.8 2018-06-01 12:37:00
2 2018-06-03 12:00:00 Temperatura 3.3 del 03-06-2018 12:00, Menor que la Mínima 3.4 03-06-2018 12:00 3.3 -- 3.4 2018-06-03 12:37:00
2 2018-06-07 12:00:00 Temperatura 8.9 del 07-06-2018 12:00, Menor que la Mínima 9.5 07-06-2018 12:00 8.9 -- 9.5 2018-06-07 12:22:00
2 2018-06-08 12:00:00 Temperatura 9.0 del 08-06-2018 12:00, Menor que la Mínima 9.1 08-06-2018 12:00 9.0 -- 9.1 2018-06-08 12:22:00
2 2018-06-09 12:00:00 Temperatura 6.4 del 09-06-2018 08:00, Menor que la Mínima 8.6 09-06-2018 12:00 6.4 -- 8.6 2018-06-09 12:22:00
2 2018-06-11 12:00:00 Temperatura 5.1 del 11-06-2018 12:00, Menor que la Mínima 9.0 11-06-2018 12:00 5.1 -- 9.0 2018-06-11 12:22:00
2 2018-06-12 12:00:00 Temperatura 2.6 del 12-06-2018 12:00, Menor que la Mínima 5.0 12-06-2018 12:00 2.6 -- 5.0 2018-06-12 12:22:00
2 2018-06-16 12:00:00 Temperatura 7.1 del 16-06-2018 11:00, Menor que la Mínima 7.9 16-06-2018 12:00 7.1 -- 7.9 2018-06-16 12:22:00
2 2018-06-17 12:00:00 Temperatura 4.6 del 17-06-2018 12:00, Menor que la Mínima 7.5 17-06-2018 12:00 4.6 -- 7.5 2018-06-17 12:22:00
2 2018-06-19 12:00:00 Temperatura 8.3 del 19-06-2018 09:00, Menor que la Mínima 9.9 19-06-2018 12:00 8.3 -- 9.9 2018-06-19 12:22:00
2 2018-06-20 12:00:00 Temperatura 7.4 del 20-06-2018 12:00, Menor que la Mínima 8.2 20-06-2018 12:00 7.4 -- 8.2 2018-06-20 12:22:00
2 2018-06-21 12:00:00 Temperatura 6.9 del 21-06-2018 10:00, Menor que la Mínima 7.2 21-06-2018 12:00 6.9 -- 7.2 2018-06-21 12:22:00
2 2018-06-22 12:00:00 Temperatura 4.8 del 22-06-2018 09:00, Menor que la Mínima 6.8 22-06-2018 12:00 4.8 -- 6.8 2018-06-22 12:22:00
2 2018-06-24 12:00:00 Temperatura 6.6 del 24-06-2018 07:00, Menor que la Mínima 8.5 24-06-2018 12:00 6.6 -- 8.5 2018-06-24 14:22:00
2 2018-06-25 12:00:00 Temperatura 5.4 del 25-06-2018 12:00, Menor que la Mínima 7.3 25-06-2018 12:00 5.4 -- 7.3 2018-06-25 12:22:00
2 2018-06-26 12:00:00 Temperatura 4.0 del 26-06-2018 10:00, Menor que la Mínima 5.3 26-06-2018 12:00 4.0 -- 5.3 2018-06-26 12:22:00
2 2018-06-29 12:00:00 Temperatura 5.5 del 29-06-2018 11:00, Menor que la Mínima 8.7 29-06-2018 12:00 5.5 -- 8.7 2018-06-29 12:22:00
2 2018-07-01 12:00:00 Temperatura 7.2 del 01-07-2018 12:00, Menor que la Mínima 9.3 01-07-2018 12:00 7.2 -- 9.3 2018-07-01 12:37:00
2 2018-07-04 12:00:00 Temperatura 8.2 del 04-07-2018 09:00, Menor que la Mínima 9.3 04-07-2018 12:00 8.2 -- 9.3 2018-07-04 12:37:00
2 2018-07-05 12:00:00 Temperatura 10.6 del 05-07-2018 10:00, Menor que la Mínima 11.4 05-07-2018 12:00 10.6 -- 11.4 2018-07-05 23:22:00
2 2018-07-06 12:00:00 Temperatura 10.4 del 06-07-2018 12:00, Menor que la Mínima 10.9 06-07-2018 12:00 10.4 -- 10.9 2018-07-06 12:37:00
2 2018-07-07 12:00:00 Temperatura 7.9 del 07-07-2018 12:00, Menor que la Mínima 10.2 07-07-2018 12:00 7.9 -- 10.2 2018-07-07 12:37:00
2 2018-07-08 12:00:00 Temperatura 6.1 del 08-07-2018 11:00, Menor que la Mínima 7.6 08-07-2018 12:00 6.1 -- 7.6 2018-07-08 12:37:00
2 2018-07-11 12:00:00 Temperatura 8.4 del 11-07-2018 12:00, Menor que la Mínima 8.5 11-07-2018 12:00 8.4 -- 8.5 2018-07-11 12:37:00
2 2018-07-12 12:00:00 Temperatura 3.8 del 12-07-2018 10:00, Menor que la Mínima 8.3 12-07-2018 12:00 3.8 -- 8.3 2018-07-12 12:37:00
2 2018-07-14 12:00:00 Temperatura 5.2 del 14-07-2018 12:00, Menor que la Mínima 6.8 14-07-2018 12:00 5.2 -- 6.8 2018-07-14 12:37:00
2 2018-07-18 12:00:00 Temperatura 6.8 del 18-07-2018 10:00, Menor que la Mínima 9.2 18-07-2018 12:00 6.8 -- 9.2 2018-07-18 12:37:00
2 2018-07-19 12:00:00 Temperatura 0.9 del 19-07-2018 12:00, Menor que la Mínima 6.7 19-07-2018 12:00 0.9 -- 6.7 2018-07-19 12:37:00
2 2018-07-22 12:00:00 Temperatura 4.6 del 22-07-2018 11:00, Menor que la Mínima 7.1 22-07-2018 12:00 4.6 -- 7.1 2018-07-22 12:37:00
2 2018-07-24 12:00:00 Temperatura 4.4 del 24-07-2018 05:00, Menor que la Mínima 5.7 24-07-2018 12:00 4.4 -- 5.7 2018-07-24 12:37:00
2 2018-07-25 12:00:00 Temperatura 4.3 del 25-07-2018 12:00, Menor que la Mínima 6.3 25-07-2018 12:00 4.3 -- 6.3 2018-07-25 12:37:00
2 2018-07-26 12:00:00 Temperatura 2.9 del 26-07-2018 10:00, Menor que la Mínima 4.2 26-07-2018 12:00 2.9 -- 4.2 2018-07-26 12:37:00
2 2018-07-28 12:00:00 Temperatura 3.0 del 28-07-2018 11:00, Menor que la Mínima 7.6 28-07-2018 12:00 3.0 -- 7.6 2018-07-28 12:37:00
2 2018-07-30 12:00:00 Temperatura 3.0 del 30-07-2018 11:00, Menor que la Mínima 4.9 30-07-2018 12:00 3.0 -- 4.9 2018-07-30 12:37:00
2 2018-07-31 12:00:00 Temperatura 3.7 del 31-07-2018 07:00, Menor que la Mínima 4.2 31-07-2018 12:00 3.7 -- 4.2 2018-07-31 12:37:00
2 2018-08-01 12:00:00 Temperatura 5.1 del 01-08-2018 11:00, Menor que la Mínima 5.2 01-08-2018 12:00 5.1 -- 5.2 2018-08-01 12:37:00
2 2018-08-03 12:00:00 Temperatura 4.4 del 03-08-2018 07:00, Menor que la Mínima 6.4 03-08-2018 12:00 4.4 -- 6.4 2018-08-03 12:37:00
2 2018-08-04 12:00:00 Temperatura 3.8 del 04-08-2018 10:00, Menor que la Mínima 4.7 04-08-2018 12:00 3.8 -- 4.7 2018-08-04 12:37:00
2 2018-08-05 12:00:00 Temperatura 4.0 del 05-08-2018 12:00, Menor que la Mínima 6.8 05-08-2018 12:00 4.0 -- 6.8 2018-08-05 12:37:00
2 2018-08-08 12:00:00 Temperatura 7.3 del 08-08-2018 10:00, Menor que la Mínima 8.5 08-08-2018 12:00 7.3 -- 8.5 2018-08-08 12:37:00
2 2018-08-10 12:00:00 Temperatura 7.3 del 10-08-2018 11:00, Menor que la Mínima 10.5 10-08-2018 12:00 7.3 -- 10.5 2018-08-10 12:37:00
2 2018-08-11 12:00:00 Temperatura 7.2 del 11-08-2018 09:00, Menor que la Mínima 7.3 11-08-2018 12:00 7.2 -- 7.3 2018-08-11 12:37:00
2 2018-08-12 12:00:00 Temperatura 5.4 del 12-08-2018 06:00, Menor que la Mínima 8.2 12-08-2018 12:00 5.4 -- 8.2 2018-08-12 12:37:00
2 2018-08-14 12:00:00 Temperatura 6.8 del 14-08-2018 11:00, Menor que la Mínima 9.9 14-08-2018 12:00 6.8 -- 9.9 2018-08-14 12:37:00
2 2018-08-15 12:00:00 Temperatura 4.2 del 15-08-2018 10:00, Menor que la Mínima 7.7 15-08-2018 12:00 4.2 -- 7.7 2018-08-15 12:37:00
2 2018-08-18 12:00:00 Temperatura 7.8 del 18-08-2018 11:00, Menor que la Mínima 8.7 18-08-2018 12:00 7.8 -- 8.7 2018-08-18 12:22:00
2 2018-08-19 12:00:00 Temperatura 4.8 del 19-08-2018 11:00, Menor que la Mínima 8.6 19-08-2018 12:00 4.8 -- 8.6 2018-08-19 12:22:00
2 2018-08-20 12:00:00 Temperatura 2.5 del 20-08-2018 09:00, Menor que la Mínima 6.1 20-08-2018 12:00 2.5 -- 6.1 2018-08-20 12:22:00
2 2018-08-22 12:00:00 Temperatura 3.5 del 22-08-2018 12:00, Menor que la Mínima 4.6 22-08-2018 12:00 3.5 -- 4.6 2018-08-22 12:22:00
2 2018-08-24 12:00:00 Temperatura 2.8 del 24-08-2018 10:00, Menor que la Mínima 5.4 24-08-2018 12:00 2.8 -- 5.4 2018-08-24 12:22:00
2 2018-08-26 12:00:00 Temperatura 4.4 del 26-08-2018 11:00, Menor que la Mínima 9.3 26-08-2018 12:00 4.4 -- 9.3 2018-08-26 12:22:00
2 2018-08-28 12:00:00 Temperatura 6.3 del 28-08-2018 04:00, Menor que la Mínima 9.3 28-08-2018 12:00 6.3 -- 9.3 2018-08-28 12:22:00
2 2018-08-29 12:00:00 Temperatura 6.7 del 29-08-2018 12:00, Menor que la Mínima 7.7 29-08-2018 12:00 6.7 -- 7.7 2018-08-29 12:22:00
2 2018-08-31 12:00:00 Temperatura 8.0 del 31-08-2018 11:00, Menor que la Mínima 9.6 31-08-2018 12:00 8.0 -- 9.6 2018-08-31 12:37:00
2 2018-09-01 12:00:00 Temperatura 6.4 del 01-09-2018 07:00, Menor que la Mínima 8.9 01-09-2018 12:00 6.4 -- 8.9 2018-09-01 12:37:00
2 2018-09-02 12:00:00 Temperatura 7.2 del 02-09-2018 07:00, Menor que la Mínima 8.6 02-09-2018 12:00 7.2 -- 8.6 2018-09-02 12:37:00
2 2018-09-03 12:00:00 Temperatura 8.9 del 03-09-2018 05:00, Menor que la Mínima 9.2 03-09-2018 12:00 8.9 -- 9.2 2018-09-03 12:37:00
2 2018-09-04 12:00:00 Temperatura 8.2 del 04-09-2018 07:00, Menor que la Mínima 11.5 04-09-2018 12:00 8.2 -- 11.5 2018-09-04 12:37:00
2 2018-09-06 12:00:00 Temperatura 7.5 del 06-09-2018 12:00, Menor que la Mínima 11.3 06-09-2018 12:00 7.5 -- 11.3 2018-09-06 12:37:00
2 2018-09-08 12:00:00 Temperatura 6.0 del 08-09-2018 06:00, Menor que la Mínima 8.8 08-09-2018 12:00 6.0 -- 8.8 2018-09-08 12:37:00
2 2018-09-09 12:00:00 Temperatura 5.4 del 09-09-2018 11:00, Menor que la Mínima 6.3 09-09-2018 12:00 5.4 -- 6.3 2018-09-09 12:37:00
2 2018-09-11 12:00:00 Temperatura 6.7 del 11-09-2018 11:00, Menor que la Mínima 9.4 11-09-2018 12:00 6.7 -- 9.4 2018-09-11 12:37:00
2 2018-09-13 12:00:00 Temperatura 8.1 del 13-09-2018 08:00, Menor que la Mínima 8.6 13-09-2018 12:00 8.1 -- 8.6 2018-09-13 12:37:00
2 2018-09-15 12:00:00 Temperatura 8.8 del 15-09-2018 11:00, Menor que la Mínima 10.1 15-09-2018 12:00 8.8 -- 10.1 2018-09-15 12:37:00
2 2018-09-16 12:00:00 Temperatura 4.0 del 16-09-2018 10:00, Menor que la Mínima 8.7 16-09-2018 12:00 4.0 -- 8.7 2018-09-16 12:37:00
2 2018-09-17 12:00:00 Temperatura 6.9 del 17-09-2018 09:00, Menor que la Mínima 7.7 17-09-2018 12:00 6.9 -- 7.7 2018-09-17 12:37:00
2 2018-09-18 12:00:00 Temperatura 6.8 del 18-09-2018 10:00, Menor que la Mínima 8.1 18-09-2018 12:00 6.8 -- 8.1 2018-09-18 12:37:00
2 2018-09-19 12:00:00 Temperatura 8.1 del 19-09-2018 08:00, Menor que la Mínima 9.5 19-09-2018 12:00 8.1 -- 9.5 2018-09-19 12:37:00
2 2018-09-20 12:00:00 Temperatura 9.9 del 20-09-2018 08:00, Menor que la Mínima 10.0 20-09-2018 12:00 9.9 -- 10.0 2018-09-20 12:37:00
2 2018-09-21 12:00:00 Temperatura 11.1 del 21-09-2018 11:00, Menor que la Mínima 13.6 21-09-2018 12:00 11.1 -- 13.6 2018-09-21 12:37:00
2 2018-09-22 12:00:00 Temperatura 8.5 del 22-09-2018 10:00, Menor que la Mínima 15.3 22-09-2018 12:00 8.5 -- 15.3 2018-09-22 12:37:00
2 2018-09-23 12:00:00 Temperatura 6.6 del 23-09-2018 11:00, Menor que la Mínima 11.4 23-09-2018 12:00 6.6 -- 11.4 2018-09-23 12:37:00
2 2018-09-24 12:00:00 Temperatura 6.8 del 24-09-2018 11:00, Menor que la Mínima 10.2 24-09-2018 12:00 6.8 -- 10.2 2018-09-24 12:37:00
2 2018-09-25 12:00:00 Temperatura 7.4 del 25-09-2018 08:00, Menor que la Mínima 12.2 25-09-2018 12:00 7.4 -- 12.2 2018-09-25 12:37:00
2 2018-09-27 12:00:00 Temperatura 10.6 del 27-09-2018 11:00, Menor que la Mínima 11.4 27-09-2018 12:00 10.6 -- 11.4 2018-09-27 12:37:00
2 2018-09-28 12:00:00 Temperatura 9.1 del 28-09-2018 09:00, Menor que la Mínima 12.1 28-09-2018 12:00 9.1 -- 12.1 2018-09-28 12:37:00
2 2018-09-30 12:00:00 Temperatura 8.9 del 30-09-2018 10:00, Menor que la Mínima 13.8 30-09-2018 12:00 8.9 -- 13.8 2018-09-30 12:37:00
2 2018-10-01 12:00:00 Temperatura 5.8 del 01-10-2018 10:00, Menor que la Mínima 10.2 01-10-2018 12:00 5.8 -- 10.2 2018-10-01 12:37:00
2 2018-10-02 12:00:00 Temperatura 6.1 del 02-10-2018 11:00, Menor que la Mínima 11.0 02-10-2018 12:00 6.1 -- 11.0 2018-10-02 12:22:00
2 2018-10-03 12:00:00 Temperatura 9.1 del 03-10-2018 07:00, Menor que la Mínima 11.8 03-10-2018 12:00 9.1 -- 11.8 2018-10-03 12:22:00
2 2018-10-04 12:00:00 Temperatura 9.9 del 04-10-2018 08:00, Menor que la Mínima 15.2 04-10-2018 12:00 9.9 -- 15.2 2018-10-04 12:22:00
2 2018-10-05 12:00:00 Temperatura 7.8 del 05-10-2018 10:00, Menor que la Mínima 10.8 05-10-2018 12:00 7.8 -- 10.8 2018-10-05 12:22:00
2 2018-10-06 12:00:00 Temperatura 7.2 del 06-10-2018 06:00, Menor que la Mínima 10.8 06-10-2018 12:00 7.2 -- 10.8 2018-10-06 12:22:00
2 2018-10-07 12:00:00 Temperatura 7.7 del 07-10-2018 08:00, Menor que la Mínima 9.3 07-10-2018 12:00 7.7 -- 9.3 2018-10-07 12:22:00
2 2018-10-09 12:00:00 Temperatura 9.8 del 09-10-2018 10:00, Menor que la Mínima 11.7 09-10-2018 12:00 9.8 -- 11.7 2018-10-09 12:22:00
2 2018-10-10 12:00:00 Temperatura 8.1 del 10-10-2018 09:00, Menor que la Mínima 11.3 10-10-2018 12:00 8.1 -- 11.3 2018-10-10 12:22:00
2 2018-10-11 12:00:00 Temperatura 10.1 del 11-10-2018 10:00, Menor que la Mínima 14.4 11-10-2018 12:00 10.1 -- 14.4 2018-10-11 12:22:00
2 2018-10-12 12:00:00 Temperatura 6.5 del 12-10-2018 08:00, Menor que la Mínima 10.7 12-10-2018 12:00 6.5 -- 10.7 2018-10-12 12:22:00
2 2018-10-13 12:00:00 Temperatura 5.8 del 13-10-2018 09:00, Menor que la Mínima 10.1 13-10-2018 12:00 5.8 -- 10.1 2018-10-13 12:22:00
2 2018-10-14 12:00:00 Temperatura 5.1 del 14-10-2018 09:00, Menor que la Mínima 9.1 14-10-2018 12:00 5.1 -- 9.1 2018-10-14 12:22:00
2 2018-10-15 12:00:00 Temperatura 8.5 del 15-10-2018 10:00, Menor que la Mínima 10.5 15-10-2018 12:00 8.5 -- 10.5 2018-10-15 12:22:00
2 2018-10-17 12:00:00 Temperatura 9.6 del 17-10-2018 03:00, Menor que la Mínima 10.8 17-10-2018 12:00 9.6 -- 10.8 2018-10-17 12:22:00
2 2018-10-18 12:00:00 Temperatura 7.2 del 18-10-2018 09:00, Menor que la Mínima 10.4 18-10-2018 12:00 7.2 -- 10.4 2018-10-18 12:22:00
2 2018-10-19 12:00:00 Temperatura 7.6 del 19-10-2018 10:00, Menor que la Mínima 13.2 19-10-2018 12:00 7.6 -- 13.2 2018-10-19 12:22:00
2 2018-10-20 12:00:00 Temperatura 5.8 del 20-10-2018 09:00, Menor que la Mínima 12.4 20-10-2018 12:00 5.8 -- 12.4 2018-10-20 12:22:00
2 2018-10-21 12:00:00 Temperatura 5.9 del 21-10-2018 09:00, Menor que la Mínima 11.8 21-10-2018 12:00 5.9 -- 11.8 2018-10-21 12:22:00
2 2018-10-22 12:00:00 Temperatura 9.2 del 22-10-2018 05:00, Menor que la Mínima 12.3 22-10-2018 12:00 9.2 -- 12.3 2018-10-22 12:22:00
2 2018-10-23 12:00:00 Temperatura 7.3 del 23-10-2018 09:00, Menor que la Mínima 10.2 23-10-2018 12:00 7.3 -- 10.2 2018-10-23 12:22:00
2 2018-10-24 12:00:00 Temperatura 8.0 del 24-10-2018 10:00, Menor que la Mínima 10.4 24-10-2018 12:00 8.0 -- 10.4 2018-10-24 12:22:00
2 2018-10-25 12:00:00 Temperatura 7.5 del 25-10-2018 10:00, Menor que la Mínima 14.0 25-10-2018 12:00 7.5 -- 14.0 2018-10-25 12:22:00
2 2018-10-26 12:00:00 Temperatura 8.4 del 26-10-2018 08:00, Menor que la Mínima 12.7 26-10-2018 12:00 8.4 -- 12.7 2018-10-26 12:22:00
2 2018-10-27 12:00:00 Temperatura 10.6 del 27-10-2018 10:00, Menor que la Mínima 15.9 27-10-2018 12:00 10.6 -- 15.9 2018-10-27 12:22:00
2 2018-10-28 12:00:00 Temperatura 9.6 del 28-10-2018 09:00, Menor que la Mínima 15.2 28-10-2018 12:00 9.6 -- 15.2 2018-10-28 12:22:00
2 2018-10-31 12:00:00 Temperatura 10.7 del 31-10-2018 10:00, Menor que la Mínima 14.1 31-10-2018 12:00 10.7 -- 14.1 2018-10-31 12:22:00
2 2018-11-01 12:00:00 Temperatura 9.6 del 01-11-2018 07:00, Menor que la Mínima 13.6 01-11-2018 12:00 9.6 -- 13.6 2018-11-01 12:22:00
2 2018-11-07 12:00:00 Temperatura 10.4 del 07-11-2018 10:00, Menor que la Mínima 13.3 07-11-2018 12:00 10.4 -- 13.3 2018-11-07 12:22:00
2 2018-11-08 12:00:00 Temperatura 10.5 del 08-11-2018 09:00, Menor que la Mínima 13.9 08-11-2018 12:00 10.5 -- 13.9 2018-11-08 12:22:00
2 2018-11-09 12:00:00 Temperatura 9.7 del 09-11-2018 10:00, Menor que la Mínima 15.4 09-11-2018 12:00 9.7 -- 15.4 2018-11-09 12:22:00
2 2018-11-10 12:00:00 Temperatura 10.9 del 10-11-2018 10:00, Menor que la Mínima 16.5 10-11-2018 12:00 10.9 -- 16.5 2018-11-10 12:22:00
2 2018-11-11 12:00:00 Temperatura 12.3 del 11-11-2018 06:00, Menor que la Mínima 15.3 11-11-2018 12:00 12.3 -- 15.3 2018-11-11 12:22:00
2 2018-11-12 12:00:00 Temperatura 13.5 del 12-11-2018 10:00, Menor que la Mínima 14.4 12-11-2018 12:00 13.5 -- 14.4 2018-11-12 12:37:00
2 2018-11-13 12:00:00 Temperatura 9.1 del 13-11-2018 10:00, Menor que la Mínima 14.6 13-11-2018 12:00 9.1 -- 14.6 2018-11-13 12:37:00
2 2018-11-14 12:00:00 Temperatura 9.4 del 14-11-2018 10:00, Menor que la Mínima 15.0 14-11-2018 12:00 9.4 -- 15.0 2018-11-14 12:37:00
2 2018-11-15 12:00:00 Temperatura 9.6 del 15-11-2018 09:00, Menor que la Mínima 17.4 15-11-2018 12:00 9.6 -- 17.4 2018-11-15 12:37:00
2 2018-11-16 12:00:00 Temperatura 11.3 del 16-11-2018 10:00, Menor que la Mínima 15.3 16-11-2018 12:00 11.3 -- 15.3 2018-11-16 12:22:00
2 2018-11-17 12:00:00 Temperatura 10.2 del 17-11-2018 08:00, Menor que la Mínima 12.4 17-11-2018 12:00 10.2 -- 12.4 2018-11-17 12:37:00
2 2018-11-18 12:00:00 Temperatura 11.2 del 18-11-2018 08:00, Menor que la Mínima 16.0 18-11-2018 12:00 11.2 -- 16.0 2018-11-18 12:37:00
2 2018-11-19 12:00:00 Temperatura 11.9 del 19-11-2018 08:00, Menor que la Mínima 18.7 19-11-2018 12:00 11.9 -- 18.7 2018-11-19 12:37:00
2 2018-11-20 12:00:00 Temperatura 10.6 del 20-11-2018 09:00, Menor que la Mínima 13.4 20-11-2018 12:00 10.6 -- 13.4 2018-11-20 12:37:00
2 2018-11-21 12:00:00 Temperatura 10.7 del 21-11-2018 10:00, Menor que la Mínima 12.9 21-11-2018 12:00 10.7 -- 12.9 2018-11-21 12:37:00
2 2018-11-22 12:00:00 Temperatura 11.1 del 22-11-2018 10:00, Menor que la Mínima 14.2 22-11-2018 12:00 11.1 -- 14.2 2018-11-22 12:22:00
2 2018-11-23 12:00:00 Temperatura 11.6 del 23-11-2018 07:00, Menor que la Mínima 16.3 23-11-2018 12:00 11.6 -- 16.3 2018-11-23 12:22:00
2 2018-11-24 12:00:00 Temperatura 11.3 del 24-11-2018 10:00, Menor que la Mínima 13.1 24-11-2018 12:00 11.3 -- 13.1 2018-11-24 12:22:00
2 2018-11-25 12:00:00 Temperatura 11.7 del 25-11-2018 10:00, Menor que la Mínima 16.0 25-11-2018 12:00 11.7 -- 16.0 2018-11-25 12:22:00
2 2018-11-26 12:00:00 Temperatura 11.0 del 26-11-2018 09:00, Menor que la Mínima 14.7 26-11-2018 12:00 11.0 -- 14.7 2018-11-26 12:22:00
2 2018-11-27 12:00:00 Temperatura 10.4 del 27-11-2018 10:00, Menor que la Mínima 14.1 27-11-2018 12:00 10.4 -- 14.1 2018-11-27 12:22:00
2 2018-11-28 12:00:00 Temperatura 12.7 del 28-11-2018 06:00, Menor que la Mínima 13.6 28-11-2018 12:00 12.7 -- 13.6 2018-11-28 12:22:00
2 2018-11-29 12:00:00 Temperatura 11.1 del 29-11-2018 05:00, Menor que la Mínima 13.6 29-11-2018 12:00 11.1 -- 13.6 2018-11-29 12:37:00
2 2018-11-30 12:00:00 Temperatura 9.8 del 30-11-2018 07:00, Menor que la Mínima 13.4 30-11-2018 12:00 9.8 -- 13.4 2018-11-30 12:37:00
2 2018-12-01 12:00:00 Temperatura 12.3 del 01-12-2018 06:00, Menor que la Mínima 12.9 01-12-2018 12:00 12.3 -- 12.9 2018-12-01 12:22:00
2 2018-12-03 12:00:00 Temperatura 12.4 del 03-12-2018 06:00, Menor que la Mínima 14.8 03-12-2018 12:00 12.4 -- 14.8 2018-12-03 12:37:00
2 2018-12-04 12:00:00 Temperatura 11.3 del 04-12-2018 06:00, Menor que la Mínima 13.8 04-12-2018 12:00 11.3 -- 13.8 2018-12-04 12:37:00
2 2018-12-05 12:00:00 Temperatura 11.0 del 05-12-2018 09:00, Menor que la Mínima 14.7 05-12-2018 12:00 11.0 -- 14.7 2018-12-05 12:37:00
2 2018-12-06 12:00:00 Temperatura 11.0 del 06-12-2018 09:00, Menor que la Mínima 16.9 06-12-2018 12:00 11.0 -- 16.9 2018-12-06 12:22:00
2 2018-12-07 12:00:00 Temperatura 10.7 del 07-12-2018 10:00, Menor que la Mínima 16.8 07-12-2018 12:00 10.7 -- 16.8 2018-12-07 12:23:00
2 2018-12-08 12:00:00 Temperatura 11.0 del 08-12-2018 09:00, Menor que la Mínima 15.0 08-12-2018 12:00 11.0 -- 15.0 2018-12-08 12:37:00
2 2018-12-09 12:00:00 Temperatura 10.9 del 09-12-2018 08:00, Menor que la Mínima 16.1 09-12-2018 12:00 10.9 -- 16.1 2018-12-09 12:37:00
2 2018-12-10 12:00:00 Temperatura 12.0 del 10-12-2018 08:00, Menor que la Mínima 15.8 10-12-2018 12:00 12.0 -- 15.8 2018-12-10 12:37:00
2 2018-12-11 12:00:00 Temperatura 10.6 del 11-12-2018 09:00, Menor que la Mínima 16.4 11-12-2018 12:00 10.6 -- 16.4 2018-12-11 12:30:00
2 2018-12-13 12:00:00 Temperatura 10.6 del 13-12-2018 09:00, Menor que la Mínima 15.7 13-12-2018 12:00 10.6 -- 15.7 2018-12-13 12:20:00
2 2018-12-14 12:00:00 Temperatura 8.7 del 14-12-2018 08:00, Menor que la Mínima 15.4 14-12-2018 12:00 8.7 -- 15.4 2018-12-14 12:40:00
2 2018-12-15 12:00:00 Temperatura 9.7 del 15-12-2018 10:00, Menor que la Mínima 15.5 15-12-2018 12:00 9.7 -- 15.5 2018-12-15 12:20:00
2 2018-12-16 12:00:00 Temperatura 10.2 del 16-12-2018 10:00, Menor que la Mínima 14.5 16-12-2018 12:00 10.2 -- 14.5 2018-12-16 12:20:00
2 2018-12-17 12:00:00 Temperatura 11.0 del 17-12-2018 09:00, Menor que la Mínima 16.3 17-12-2018 12:00 11.0 -- 16.3 2018-12-17 12:40:00
2 2018-12-19 12:00:00 Temperatura 11.5 del 19-12-2018 09:00, Menor que la Mínima 15.4 19-12-2018 12:00 11.5 -- 15.4 2018-12-19 12:20:00
2 2018-12-20 12:00:00 Temperatura 10.6 del 20-12-2018 09:00, Menor que la Mínima 14.9 20-12-2018 12:00 10.6 -- 14.9 2018-12-20 12:20:00
2 2018-12-21 12:00:00 Temperatura 10.5 del 21-12-2018 10:00, Menor que la Mínima 14.6 21-12-2018 12:00 10.5 -- 14.6 2018-12-21 12:20:00
2 2018-12-23 12:00:00 Temperatura 10.9 del 23-12-2018 09:00, Menor que la Mínima 16.2 23-12-2018 12:00 10.9 -- 16.2 2018-12-23 12:40:00
2 2018-12-24 12:00:00 Temperatura 12.2 del 24-12-2018 09:00, Menor que la Mínima 15.2 24-12-2018 12:00 12.2 -- 15.2 2018-12-24 12:20:00
2 2018-12-27 12:00:00 Temperatura 12.9 del 27-12-2018 08:00, Menor que la Mínima 14.6 27-12-2018 12:00 12.9 -- 14.6 2018-12-27 12:20:00
2 2018-12-28 12:00:00 Temperatura 11.7 del 28-12-2018 07:00, Menor que la Mínima 14.2 28-12-2018 12:00 11.7 -- 14.2 2018-12-28 12:40:00
2 2018-12-29 12:00:00 Temperatura 12.0 del 29-12-2018 07:00, Menor que la Mínima 13.9 29-12-2018 12:00 12.0 -- 13.9 2018-12-29 12:40:00
2 2018-12-30 12:00:00 Temperatura 11.4 del 30-12-2018 06:00, Menor que la Mínima 13.0 30-12-2018 12:00 11.4 -- 13.0 2018-12-30 12:40:00
2 2018-12-31 12:00:00 Temperatura 10.3 del 31-12-2018 09:00, Menor que la Mínima 14.2 31-12-2018 12:00 10.3 -- 14.2 2018-12-31 12:40:00
2 2019-01-01 12:00:00 Temperatura 11.9 del 01-01-2019 10:00, Menor que la Mínima 14.1 01-01-2019 12:00 11.9 -- 14.1 2019-01-01 12:40:00
2 2019-01-01 12:00:00 Temperatura 11.9 del 01-01-2019 10:00, Menor que la Mínima 14.1 01-01-2019 12:00 11.9 -- 14.1 2019-01-01 12:40:00
2 2019-01-02 12:00:00 Temperatura 11.6 del 02-01-2019 10:00, Menor que la Mínima 12.9 02-01-2019 12:00 11.6 -- 12.9 2019-01-02 12:40:00
2 2019-01-03 12:00:00 Temperatura 11.0 del 03-01-2019 10:00, Menor que la Mínima 15.2 03-01-2019 12:00 11.0 -- 15.2 2019-01-03 12:30:00
2 2019-01-04 12:00:00 Temperatura 11.2 del 04-01-2019 10:00, Menor que la Mínima 15.1 04-01-2019 12:00 11.2 -- 15.1 2019-01-04 12:40:00
2 2019-01-05 12:00:00 Temperatura 11.6 del 05-01-2019 10:00, Menor que la Mínima 14.5 05-01-2019 12:00 11.6 -- 14.5 2019-01-05 12:30:00
2 2019-01-06 12:00:00 Temperatura 14.2 del 06-01-2019 08:00, Menor que la Mínima 17.1 06-01-2019 12:00 14.2 -- 17.1 2019-01-06 12:30:00
2 2019-01-07 12:00:00 Temperatura 12.4 del 07-01-2019 09:00, Menor que la Mínima 16.2 07-01-2019 12:00 12.4 -- 16.2 2019-01-07 12:30:00
2 2019-01-08 12:00:00 Temperatura 12.5 del 08-01-2019 10:00, Menor que la Mínima 16.9 08-01-2019 12:00 12.5 -- 16.9 2019-01-08 12:40:00
2 2019-01-09 12:00:00 Temperatura 11.9 del 09-01-2019 09:00, Menor que la Mínima 18.5 09-01-2019 12:00 11.9 -- 18.5 2019-01-09 12:30:00
2 2019-01-10 12:00:00 Temperatura 11.3 del 10-01-2019 10:00, Menor que la Mínima 17.3 10-01-2019 12:00 11.3 -- 17.3 2019-01-10 12:40:00
2 2019-01-11 12:00:00 Temperatura 11.9 del 11-01-2019 10:00, Menor que la Mínima 15.6 11-01-2019 12:00 11.9 -- 15.6 2019-01-11 12:40:00
2 2019-01-12 12:00:00 Temperatura 12.4 del 12-01-2019 09:00, Menor que la Mínima 13.5 12-01-2019 12:00 12.4 -- 13.5 2019-01-12 12:30:00
2 2019-01-13 12:00:00 Temperatura 12.8 del 13-01-2019 07:00, Menor que la Mínima 15.6 13-01-2019 12:00 12.8 -- 15.6 2019-01-13 12:30:00
2 2019-01-14 12:00:00 Temperatura 13.0 del 14-01-2019 06:00, Menor que la Mínima 16.9 14-01-2019 12:00 13.0 -- 16.9 2019-01-14 12:40:00
2 2019-01-15 12:00:00 Temperatura 10.6 del 15-01-2019 10:00, Menor que la Mínima 15.4 15-01-2019 12:00 10.6 -- 15.4 2019-01-15 12:30:00
2 2019-01-16 12:00:00 Temperatura 13.9 del 16-01-2019 08:00, Menor que la Mínima 15.7 16-01-2019 12:00 13.9 -- 15.7 2019-01-16 12:30:00
2 2019-01-17 12:00:00 Temperatura 10.5 del 17-01-2019 10:00, Menor que la Mínima 14.5 17-01-2019 12:00 10.5 -- 14.5 2019-01-17 12:40:00
2 2019-01-18 12:00:00 Temperatura 12.3 del 18-01-2019 09:00, Menor que la Mínima 15.6 18-01-2019 12:00 12.3 -- 15.6 2019-01-18 12:30:00
2 2019-01-19 12:00:00 Temperatura 13.6 del 19-01-2019 06:00, Menor que la Mínima 14.8 19-01-2019 12:00 13.6 -- 14.8 2019-01-19 12:30:00
2 2019-01-20 12:00:00 Temperatura 12.8 del 20-01-2019 10:00, Menor que la Mínima 14.9 20-01-2019 12:00 12.8 -- 14.9 2019-01-20 12:40:00
2 2019-01-21 12:00:00 Temperatura 13.0 del 21-01-2019 09:00, Menor que la Mínima 14.8 21-01-2019 12:00 13.0 -- 14.8 2019-01-21 12:30:00
2 2019-01-23 12:00:00 Temperatura 12.7 del 23-01-2019 08:00, Menor que la Mínima 15.2 23-01-2019 12:00 12.7 -- 15.2 2019-01-23 12:40:00
2 2019-01-24 12:00:00 Temperatura 13.9 del 24-01-2019 10:00, Menor que la Mínima 14.7 24-01-2019 12:00 13.9 -- 14.7 2019-01-24 12:30:00
2 2019-01-25 12:00:00 Temperatura 13.6 del 25-01-2019 10:00, Menor que la Mínima 15.9 25-01-2019 12:00 13.6 -- 15.9 2019-01-25 12:30:00
2 2019-01-26 12:00:00 Temperatura 13.5 del 26-01-2019 10:00, Menor que la Mínima 15.4 26-01-2019 12:00 13.5 -- 15.4 2019-01-26 12:20:00
2 2019-01-27 12:00:00 Temperatura 14.0 del 27-01-2019 10:00, Menor que la Mínima 15.0 27-01-2019 12:00 14.0 -- 15.0 2019-01-27 12:20:00
2 2019-01-28 12:00:00 Temperatura 12.6 del 28-01-2019 10:00, Menor que la Mínima 15.7 28-01-2019 12:00 12.6 -- 15.7 2019-01-28 12:20:00
2 2019-01-29 12:00:00 Temperatura 14.0 del 29-01-2019 10:00, Menor que la Mínima 14.4 29-01-2019 12:00 14.0 -- 14.4 2019-01-29 12:20:00
2 2019-01-30 12:00:00 Temperatura 15.4 del 30-01-2019 10:00, Menor que la Mínima 17.4 30-01-2019 12:00 15.4 -- 17.4 2019-01-30 12:20:00
2 2019-01-31 12:00:00 Temperatura 15.1 del 31-01-2019 09:00, Menor que la Mínima 19.1 31-01-2019 12:00 15.1 -- 19.1 2019-01-31 12:20:00
2 2019-02-01 12:00:00 Temperatura 14.7 del 01-02-2019 09:00, Menor que la Mínima 15.7 01-02-2019 12:00 14.7 -- 15.7 2019-02-01 12:20:00
2 2019-02-02 12:00:00 Temperatura 14.6 del 02-02-2019 10:00, Menor que la Mínima 15.7 02-02-2019 12:00 14.6 -- 15.7 2019-02-02 12:15:00
2 2019-02-03 12:00:00 Temperatura 15.4 del 03-02-2019 08:00, Menor que la Mínima 16.4 03-02-2019 12:00 15.4 -- 16.4 2019-02-03 12:20:00
2 2019-02-04 12:00:00 Temperatura 14.8 del 04-02-2019 07:00, Menor que la Mínima 16.1 04-02-2019 12:00 14.8 -- 16.1 2019-02-04 12:20:00
2 2019-02-06 12:00:00 Temperatura 16.0 del 06-02-2019 05:00, Menor que la Mínima 16.3 06-02-2019 12:00 16.0 -- 16.3 2019-02-06 12:20:00
2 2019-02-07 12:00:00 Temperatura 15.4 del 07-02-2019 09:00, Menor que la Mínima 17.7 07-02-2019 12:00 15.4 -- 17.7 2019-02-07 12:20:00
2 2019-02-08 12:00:00 Temperatura 14.9 del 08-02-2019 09:00, Menor que la Mínima 16.2 08-02-2019 12:00 14.9 -- 16.2 2019-02-08 12:20:00
2 2019-02-09 12:00:00 Temperatura 13.9 del 09-02-2019 10:00, Menor que la Mínima 18.5 09-02-2019 12:00 13.9 -- 18.5 2019-02-09 12:20:00
2 2019-02-10 12:00:00 Temperatura 13.6 del 10-02-2019 09:00, Menor que la Mínima 17.0 10-02-2019 12:00 13.6 -- 17.0 2019-02-10 12:20:00
2 2019-02-11 12:00:00 Temperatura 12.7 del 11-02-2019 11:00, Menor que la Mínima 14.0 11-02-2019 12:00 12.7 -- 14.0 2019-02-11 12:20:00
2 2019-02-12 12:00:00 Temperatura 12.9 del 12-02-2019 10:00, Menor que la Mínima 15.4 12-02-2019 12:00 12.9 -- 15.4 2019-02-12 12:20:00
2 2019-02-13 12:00:00 Temperatura 10.1 del 13-02-2019 10:00, Menor que la Mínima 13.4 13-02-2019 12:00 10.1 -- 13.4 2019-02-13 12:20:00
2 2019-02-14 12:00:00 Temperatura 12.4 del 14-02-2019 08:00, Menor que la Mínima 13.3 14-02-2019 12:00 12.4 -- 13.3 2019-02-14 12:20:00
2 2019-02-15 12:00:00 Temperatura 14.0 del 15-02-2019 09:00, Menor que la Mínima 16.5 15-02-2019 12:00 14.0 -- 16.5 2019-02-15 12:20:00
2 2019-02-16 12:00:00 Temperatura 14.9 del 16-02-2019 06:00, Menor que la Mínima 15.0 16-02-2019 12:00 14.9 -- 15.0 2019-02-16 12:20:00
2 2019-02-17 12:00:00 Temperatura 12.5 del 17-02-2019 11:00, Menor que la Mínima 16.6 17-02-2019 12:00 12.5 -- 16.6 2019-02-17 12:20:00
2 2019-02-18 12:00:00 Temperatura 13.6 del 18-02-2019 10:00, Menor que la Mínima 16.2 18-02-2019 12:00 13.6 -- 16.2 2019-02-18 12:20:00
2 2019-02-19 12:00:00 Temperatura 15.6 del 19-02-2019 04:00, Menor que la Mínima 15.8 19-02-2019 12:00 15.6 -- 15.8 2019-02-19 12:20:00
2 2019-02-20 12:00:00 Temperatura 14.4 del 20-02-2019 06:00, Menor que la Mínima 15.9 20-02-2019 12:00 14.4 -- 15.9 2019-02-20 12:20:00
2 2019-02-21 12:00:00 Temperatura 13.8 del 21-02-2019 09:00, Menor que la Mínima 17.0 21-02-2019 12:00 13.8 -- 17.0 2019-02-21 12:20:00
2 2019-02-22 12:00:00 Temperatura 13.6 del 22-02-2019 10:00, Menor que la Mínima 16.1 22-02-2019 12:00 13.6 -- 16.1 2019-02-22 12:20:00
2 2019-02-23 12:00:00 Temperatura 13.6 del 23-02-2019 08:00, Menor que la Mínima 16.8 23-02-2019 12:00 13.6 -- 16.8 2019-02-23 12:20:00
2 2019-02-24 12:00:00 Temperatura 12.8 del 24-02-2019 10:00, Menor que la Mínima 16.6 24-02-2019 12:00 12.8 -- 16.6 2019-02-24 12:20:00
2 2019-02-25 12:00:00 Temperatura 11.3 del 25-02-2019 09:00, Menor que la Mínima 14.7 25-02-2019 12:00 11.3 -- 14.7 2019-02-25 12:20:00
2 2019-02-26 12:00:00 Temperatura 11.6 del 26-02-2019 11:00, Menor que la Mínima 13.8 26-02-2019 12:00 11.6 -- 13.8 2019-02-26 12:20:00
2 2019-02-27 12:00:00 Temperatura 12.8 del 27-02-2019 11:00, Menor que la Mínima 14.5 27-02-2019 12:00 12.8 -- 14.5 2019-02-27 12:20:00
2 2019-02-28 12:00:00 Temperatura 12.5 del 28-02-2019 10:00, Menor que la Mínima 15.7 28-02-2019 12:00 12.5 -- 15.7 2019-02-28 12:20:00
2 2019-03-01 12:00:00 Temperatura 11.2 del 01-03-2019 09:00, Menor que la Mínima 14.9 01-03-2019 12:00 11.2 -- 14.9 2019-03-01 12:20:00
2 2019-03-02 12:00:00 Temperatura 11.0 del 02-03-2019 11:00, Menor que la Mínima 13.2 02-03-2019 12:00 11.0 -- 13.2 2019-03-02 12:20:00
2 2019-03-04 12:00:00 Temperatura 10.8 del 04-03-2019 09:00, Menor que la Mínima 15.3 04-03-2019 12:00 10.8 -- 15.3 2019-03-04 12:20:00
2 2019-03-05 12:00:00 Temperatura 11.7 del 05-03-2019 10:00, Menor que la Mínima 13.1 05-03-2019 12:00 11.7 -- 13.1 2019-03-05 12:20:00
2 2019-03-06 12:00:00 Temperatura 12.1 del 06-03-2019 10:00, Menor que la Mínima 15.7 06-03-2019 12:00 12.1 -- 15.7 2019-03-06 12:20:00
2 2019-03-07 12:00:00 Temperatura 10.9 del 07-03-2019 11:00, Menor que la Mínima 14.8 07-03-2019 12:00 10.9 -- 14.8 2019-03-07 12:20:00
2 2019-03-08 12:00:00 Temperatura 11.8 del 08-03-2019 10:00, Menor que la Mínima 13.8 08-03-2019 12:00 11.8 -- 13.8 2019-03-08 12:20:00
2 2019-03-09 12:00:00 Temperatura 10.1 del 09-03-2019 09:00, Menor que la Mínima 12.5 09-03-2019 12:00 10.1 -- 12.5 2019-03-09 12:20:00
2 2019-03-10 12:00:00 Temperatura 9.3 del 10-03-2019 11:00, Menor que la Mínima 12.5 10-03-2019 12:00 9.3 -- 12.5 2019-03-10 12:20:00
2 2019-03-11 12:00:00 Temperatura 11.2 del 11-03-2019 10:00, Menor que la Mínima 13.8 11-03-2019 12:00 11.2 -- 13.8 2019-03-11 12:20:00
2 2019-03-12 12:00:00 Temperatura 11.0 del 12-03-2019 09:00, Menor que la Mínima 13.5 12-03-2019 12:00 11.0 -- 13.5 2019-03-12 12:20:00
2 2019-03-13 12:00:00 Temperatura 12.7 del 13-03-2019 11:00, Menor que la Mínima 12.8 13-03-2019 12:00 12.7 -- 12.8 2019-03-13 12:20:00
2 2019-03-15 12:00:00 Temperatura 12.0 del 15-03-2019 05:00, Menor que la Mínima 13.2 15-03-2019 12:00 12.0 -- 13.2 2019-03-15 12:20:00
2 2019-03-16 12:00:00 Temperatura 11.2 del 16-03-2019 07:00, Menor que la Mínima 13.1 16-03-2019 12:00 11.2 -- 13.1 2019-03-16 12:20:00
2 2019-03-17 12:00:00 Temperatura 9.7 del 17-03-2019 11:00, Menor que la Mínima 11.5 17-03-2019 12:00 9.7 -- 11.5 2019-03-17 12:20:00
2 2019-03-18 12:00:00 Temperatura 9.2 del 18-03-2019 10:00, Menor que la Mínima 11.7 18-03-2019 12:00 9.2 -- 11.7 2019-03-18 12:20:00
2 2019-03-19 12:00:00 Temperatura 9.8 del 19-03-2019 09:00, Menor que la Mínima 12.0 19-03-2019 12:00 9.8 -- 12.0 2019-03-19 12:20:00
2 2019-03-20 12:00:00 Temperatura 8.7 del 20-03-2019 11:00, Menor que la Mínima 13.7 20-03-2019 12:00 8.7 -- 13.7 2019-03-20 12:20:00
2 2019-03-21 12:00:00 Temperatura 7.7 del 21-03-2019 11:00, Menor que la Mínima 12.3 21-03-2019 12:00 7.7 -- 12.3 2019-03-21 12:20:00
2 2019-03-22 12:00:00 Temperatura 9.7 del 22-03-2019 10:00, Menor que la Mínima 9.8 22-03-2019 12:00 9.7 -- 9.8 2019-03-22 13:20:00
2 2019-03-23 12:00:00 Temperatura 9.0 del 23-03-2019 10:00, Menor que la Mínima 12.2 23-03-2019 12:00 9.0 -- 12.2 2019-03-25 19:40:00
2 2019-03-24 12:00:00 Temperatura 9.3 del 24-03-2019 09:00, Menor que la Mínima 11.7 24-03-2019 12:00 9.3 -- 11.7 2019-03-25 19:50:00
2 2019-03-26 12:00:00 Temperatura 10.5 del 26-03-2019 12:00, Menor que la Mínima 11.4 26-03-2019 12:00 10.5 -- 11.4 2019-03-26 12:20:00
2 2019-03-27 12:00:00 Temperatura 10.2 del 27-03-2019 06:00, Menor que la Mínima 10.4 27-03-2019 12:00 10.2 -- 10.4 2019-03-27 12:20:00
2 2019-03-29 12:00:00 Temperatura 8.5 del 29-03-2019 11:00, Menor que la Mínima 12.2 29-03-2019 12:00 8.5 -- 12.2 2019-03-29 12:20:00
2 2019-03-31 12:00:00 Temperatura 11.6 del 31-03-2019 11:00, Menor que la Mínima 12.4 31-03-2019 12:00 11.6 -- 12.4 2019-03-31 12:20:00
2 2019-04-01 12:00:00 Temperatura 10.2 del 01-04-2019 10:00, Menor que la Mínima 14.7 01-04-2019 12:00 10.2 -- 14.7 2019-04-01 12:20:00
2 2019-04-03 12:00:00 Temperatura 11.0 del 03-04-2019 09:00, Menor que la Mínima 13.2 03-04-2019 12:00 11.0 -- 13.2 2019-04-03 12:20:00
2 2019-04-04 12:00:00 Temperatura 10.2 del 04-04-2019 11:00, Menor que la Mínima 13.6 04-04-2019 12:00 10.2 -- 13.6 2019-04-04 12:20:00
2 2019-04-06 12:00:00 Temperatura 14.2 del 06-04-2019 05:00, Menor que la Mínima 15.8 06-04-2019 12:00 14.2 -- 15.8 2019-04-06 12:40:00
2 2019-04-07 12:00:00 Temperatura 11.5 del 07-04-2019 12:00, Menor que la Mínima 16.5 07-04-2019 12:00 11.5 -- 16.5 2019-04-07 12:20:00
2 2019-04-09 12:00:00 Temperatura 11.2 del 09-04-2019 04:00, Menor que la Mínima 12.4 09-04-2019 12:00 11.2 -- 12.4 2019-04-09 12:40:00
2 2019-04-10 12:00:00 Temperatura 8.0 del 10-04-2019 09:00, Menor que la Mínima 11.7 10-04-2019 12:00 8.0 -- 11.7 2019-04-10 12:40:00
2 2019-04-11 12:00:00 Temperatura 10.6 del 11-04-2019 05:00, Menor que la Mínima 10.9 11-04-2019 12:00 10.6 -- 10.9 2019-04-11 12:40:00
2 2019-04-12 12:00:00 Temperatura 10.1 del 12-04-2019 03:00, Menor que la Mínima 10.9 12-04-2019 12:00 10.1 -- 10.9 2019-04-12 12:20:00
2 2019-04-13 12:00:00 Temperatura 9.3 del 13-04-2019 04:00, Menor que la Mínima 12.0 13-04-2019 12:00 9.3 -- 12.0 2019-04-13 12:40:00
2 2019-04-14 12:00:00 Temperatura 7.4 del 14-04-2019 10:00, Menor que la Mínima 10.5 14-04-2019 12:00 7.4 -- 10.5 2019-04-14 12:40:00
2 2019-04-15 12:00:00 Temperatura 9.6 del 15-04-2019 07:00, Menor que la Mínima 10.5 15-04-2019 12:00 9.6 -- 10.5 2019-04-15 12:40:00
2 2019-04-16 12:00:00 Temperatura 8.3 del 16-04-2019 11:00, Menor que la Mínima 13.3 16-04-2019 12:00 8.3 -- 13.3 2019-04-16 12:40:00
2 2019-04-17 12:00:00 Temperatura 9.1 del 17-04-2019 11:00, Menor que la Mínima 10.4 17-04-2019 12:00 9.1 -- 10.4 2019-04-17 12:40:00
2 2019-04-20 12:00:00 Temperatura 9.5 del 20-04-2019 05:00, Menor que la Mínima 12.7 20-04-2019 12:00 9.5 -- 12.7 2019-04-20 12:40:00
2 2019-04-21 12:00:00 Temperatura 6.1 del 21-04-2019 11:00, Menor que la Mínima 11.3 21-04-2019 12:00 6.1 -- 11.3 2019-04-21 12:40:00
2 2019-04-22 12:00:00 Temperatura 6.7 del 22-04-2019 11:00, Menor que la Mínima 7.2 22-04-2019 12:00 6.7 -- 7.2 2019-04-22 12:40:00
2 2019-04-23 12:00:00 Temperatura 7.7 del 23-04-2019 06:00, Menor que la Mínima 9.0 23-04-2019 12:00 7.7 -- 9.0 2019-04-23 12:40:00
2 2019-04-25 12:00:00 Temperatura 9.5 del 25-04-2019 11:00, Menor que la Mínima 11.3 25-04-2019 12:00 9.5 -- 11.3 2019-04-25 12:40:00
2 2019-04-26 12:00:00 Temperatura 8.8 del 26-04-2019 10:00, Menor que la Mínima 10.7 26-04-2019 12:00 8.8 -- 10.7 2019-04-26 12:40:00
2 2019-04-29 12:00:00 Temperatura 9.2 del 29-04-2019 11:00, Menor que la Mínima 13.0 29-04-2019 12:00 9.2 -- 13.0 2019-04-29 12:40:00
2 2019-05-01 12:00:00 Temperatura 8.1 del 01-05-2019 09:00, Menor que la Mínima 11.7 01-05-2019 12:00 8.1 -- 11.7 2019-05-01 12:40:00
2 2019-05-02 12:00:00 Temperatura 8.3 del 02-05-2019 10:00, Menor que la Mínima 10.9 02-05-2019 12:00 8.3 -- 10.9 2019-05-02 12:40:00
2 2019-05-03 12:00:00 Temperatura 8.1 del 03-05-2019 11:00, Menor que la Mínima 11.0 03-05-2019 12:00 8.1 -- 11.0 2019-05-03 12:40:00
2 2019-05-05 12:00:00 Temperatura 8.6 del 05-05-2019 11:00, Menor que la Mínima 11.3 05-05-2019 12:00 8.6 -- 11.3 2019-05-05 12:40:00
2 2019-05-08 12:00:00 Temperatura 8.0 del 08-05-2019 06:00, Menor que la Mínima 11.3 08-05-2019 12:00 8.0 -- 11.3 2019-05-08 12:40:00
2 2019-05-10 12:00:00 Temperatura 5.3 del 10-05-2019 10:00, Menor que la Mínima 10.6 10-05-2019 12:00 5.3 -- 10.6 2019-05-14 18:50:00
2 2019-05-12 12:00:00 Temperatura 6.4 del 12-05-2019 08:00, Menor que la Mínima 7.8 12-05-2019 12:00 6.4 -- 7.8 2019-05-14 18:50:00
2 2019-05-14 12:00:00 Temperatura 5.0 del 14-05-2019 10:00, Menor que la Mínima 6.9 14-05-2019 12:00 5.0 -- 6.9 2019-05-14 18:50:00
2 2019-05-15 12:00:00 Temperatura 7.1 del 15-05-2019 12:00, Menor que la Mínima 8.0 15-05-2019 12:00 7.1 -- 8.0 2019-05-15 14:14:00
2 2019-05-17 12:00:00 Temperatura 7.5 del 17-05-2019 10:00, Menor que la Mínima 8.0 17-05-2019 12:00 7.5 -- 8.0 2019-05-24 14:08:00
2 2019-05-18 12:00:00 Temperatura 6.8 del 18-05-2019 10:00, Menor que la Mínima 8.4 18-05-2019 12:00 6.8 -- 8.4 2019-05-24 14:04:00
2 2019-05-21 12:00:00 Temperatura 2.5 del 21-05-2019 11:00, Menor que la Mínima 9.1 21-05-2019 12:00 2.5 -- 9.1 2019-05-24 14:10:00
2 2019-05-25 12:00:00 Temperatura 8.7 del 25-05-2019 10:00, Menor que la Mínima 9.5 25-05-2019 12:00 8.7 -- 9.5 2019-05-28 12:10:00
2 2019-05-27 12:00:00 Temperatura 9.1 del 27-05-2019 10:00, Menor que la Mínima 11.2 27-05-2019 12:00 9.1 -- 11.2 2019-05-28 12:10:00
2 2019-05-28 12:00:00 Temperatura 6.8 del 28-05-2019 07:00, Menor que la Mínima 9.8 28-05-2019 12:00 6.8 -- 9.8 2019-05-28 12:37:00
2 2019-06-18 12:00:00 Temperatura 1.4 del 18-06-2019 12:00, Menor que la Mínima 4.4 18-06-2019 12:00 1.4 -- 4.4 2019-06-18 12:20:00
2 2019-06-22 12:00:00 Temperatura 9.1 del 22-06-2019 11:00, Menor que la Mínima 10.4 22-06-2019 12:00 9.1 -- 10.4 2019-06-22 12:17:00
2 2019-06-23 12:00:00 Temperatura 6.8 del 23-06-2019 10:00, Menor que la Mínima 9.5 23-06-2019 12:00 6.8 -- 9.5 2019-06-23 12:18:00
2 2019-06-25 12:00:00 Temperatura 3.7 del 25-06-2019 09:00, Menor que la Mínima 9.4 25-06-2019 12:00 3.7 -- 9.4 2019-06-25 12:20:00
2 2019-06-26 12:00:00 Temperatura 3.3 del 26-06-2019 08:00, Menor que la Mínima 4.9 26-06-2019 12:00 3.3 -- 4.9 2019-06-26 12:20:00
Errores del Nivel 357
Informe generado el 05-03-2024 09:59
Requerimiento: RE6001